Main page
METAR-TAF:

METAR-TAF

Airports :

Base Aérea de Alcantarilla

Murcia, Spain

latitude: 37-57N, longitude: 001-14W, elevation: 75 m

Current weather observation

The report was made 4 hours and 27 minutes ago, at 18:00 UTC
Wind 4 kt from the East/Northeast
Temperature 15°C
Humidity 88%
Pressure 1014 hPa
Visibility 10 km or more
Few clouds at a height of 3000 ft

METAR: LERI 171800Z 06004KT 9999 FEW030 15/13 Q1014 NOSIG

Time: 23:27 (22:27 UTC)

Forecast

The report was made 8 hours and 27 minutes ago, at 14:00 UTC
Forecast valid from 17 at 15 UTC to 17 at 24 UTC
Wind 5 kt from the East
Visibility 10 km or more
Scattered clouds at a height of 4000 ft

TAF: LERI 171400Z 1715/1724 09005KT 9999 SCT040

Weather observations and forecasts of more than 4000 airports (METAR and TAF reports).

The available stations are represented by yellow and red dots on the map.

Hover mouse over dot to see the name of the station.

Then click to see weather observations and forecasts.

To change the map : click on the green buttons with a black cross to zoom in, on the green button with a dash to zoom out, or on the green arrows for adjacent maps.


METAR-TAF: